Broken Arrow, OK (74012)

1:58 PM CDT on May 05, 2015 (GMT -0500)
Country Aire | | Change Station
CLOSE
Current Station
Personal Weather Station
Location: Broken Arrow, OK
Elevation: 697 ft
Nearby Weather Stations

Elev 697 ft 36.05 °N, 95.82 °W | Updated 2 seconds ago

Mostly Cloudy
Mostly Cloudy
77.9 °F
Feels Like 80 °F
N
7.0
Wind Variable Wind from South
Gusts 15.0 mph

Today
High -- | Low -- °F
--% Chance of Precip.
Yesterday
High -- | Low -- °F
Precip. -- in
6:26 AM 8:13 PM
Full, 97% visible
Pressure 30.06 in
Visibility 10.0 miles
Clouds Scattered Clouds 3700 ft
Mostly Cloudy 4900 ft
Mostly Cloudy 6000 ft
Heat Index 80 °F
Dew Point 64 °F
Humidity 62%
Rainfall 0.00 in
Snow Depth Not available.
UV 5.2 out of 12
Pollen 7.40 out of 12
Air Quality Not available.
Flu Activity Local Activity
METAR KRVS 051753Z 17010G22KT 10SM SCT037 BKN049 BKN060 24/16 A3004 RMK AO2 SLP179 T02440161 10250 20144 58015

More Conditions Fewer Conditions

Pressure 30.06 in
Visibility 10.0 miles
Clouds Scattered Clouds 3700 ft
Mostly Cloudy 4900 ft
Mostly Cloudy 6000 ft
Heat Index 80 °F
Dew Point 64 °F
Humidity 62%
Rainfall 0.00 in
Snow Depth Not available.
UV 5.2 out of 12
Pollen 7.40 out of 12
Air Quality Not available.
Flu Activity Local Activity
METAR KRVS 051753Z 17010G22KT 10SM SCT037 BKN049 BKN060 24/16 A3004 RMK AO2 SLP179 T02440161 10250 20144 58015

More Conditions Fewer Conditions

Nowcast | as of 1:50 PM CDT on May 5, 2015

At 1:45 PM isolated to scattered showers were over eastern Oklahoma...generally east of Highway 75. Isolated showers were also over northwest Arkansas. The showers were moving north about 30 miles an hour. The most significant cluster of showers at 1:45 PM was over western Wagoner County in eastern Oklahoma. Through 3:15 PM showers will become more common over northeast Oklahoma and northwest Arkansas...along with isolated thunderstorms. Portions of western Wagoner County...and much of Rogers County will likely receive some rainfall. Showers will be rather spotty for other counties in eastern Oklahoma and northwest Arkansas. Rainfall amounts...for places where it does rain...will generally be less than one tenth of an inch. Isolated thunderstorms may produce a quarter inch of rain.

×

10-Day Weather Forecast

Almanac

Astronomy

May. 05, 2015 Rise Set
Actual Time
Civil Twilight
Nautical Twilight
Astronomical Twilight
Moon
Length of Visible Light
Length of Day
Tomorrow will be .
, % of the Moon is Illuminated

Today's Extremes

State Highs State Lows

Community

WunderPhotos

Upload Photos

1,818,953 photos uploaded!

WunderBlogs® & News

Nearby

Air Quality

  Air Quality AQ Index Pollutant
Not available.

Snow Depth

Station Depth Elevation

Earthquake Activity

City Distance Mag. Time & Date
Minimum magnitude displayed is 2.5.

Coastal Water Temperatures

Place Temperature

Stations

Nearby Weather Stations

Station Location Temp. Windchill Dew Point Humidity Wind Precip. Elev Updated Type